Time;durP1;ratioP1;P1;durP2;ratioP2;P2;SDS_P1;SDS_P2;PMS_P1;PMS_P2;Temp;Humidity;BMP_temperature;BMP_pressure;BME280_temperature;BME280_humidity;BME280_pressure;Samples;Min_cycle;Max_cycle;Signal;HPM_P1;HPM_P2
2023/01/17 00:01:59;;;;;;;16.40;10.50;;;;;;;3.03;84.36;97139.23;208514;1274;164444;-65
2023/01/17 00:12:27;;;;;;;43.80;18.70;;;;;;;2.98;84.55;97124.72;208589;1286;141505;-69
2023/01/17 00:17:30;;;;;;;23.40;12.80;;;;;;;2.92;84.80;97120.88;209521;1284;140570;-65
2023/01/17 01:36:48;;;;;;;18.90;11.60;;;;;;;2.85;86.05;97064.27;208608;1293;141538;-65
2023/01/17 01:41:51;;;;;;;12.90;9.90;;;;;;;2.82;86.26;97066.20;208100;1285;141132;-63
2023/01/17 01:46:55;;;;;;;19.50;13.00;;;;;;;2.83;86.24;97057.11;208574;1294;139705;-64
2023/01/17 01:52:02;;;;;;;18.40;12.30;;;;;;;2.81;86.40;97056.66;208099;1286;141541;-63
2023/01/17 01:57:11;;;;;;;22.50;14.60;;;;;;;2.80;86.38;97050.02;208056;1293;141485;-63
2023/01/17 02:02:14;;;;;;;15.90;10.70;;;;;;;2.75;86.46;97039.64;209719;1295;141533;-65
2023/01/17 02:07:44;;;;;;;20.20;13.90;;;;;;;2.76;86.39;97036.48;207916;1285;141621;-67
2023/01/17 02:12:55;;;;;;;16.80;11.80;;;;;;;2.84;86.72;97029.45;208626;1292;141311;-63
2023/01/17 02:18:18;;;;;;;18.30;11.40;;;;;;;2.91;86.63;97033.34;208376;1291;141965;-64
2023/01/17 02:23:31;;;;;;;20.50;13.40;;;;;;;2.87;86.33;97028.58;209500;1293;140448;-63
2023/01/17 02:28:39;;;;;;;20.30;13.00;;;;;;;2.85;86.49;97030.92;209325;1295;141953;-62
2023/01/17 02:33:59;;;;;;;18.30;11.60;;;;;;;2.86;86.67;97031.67;209592;1278;140159;-64
2023/01/17 02:39:18;;;;;;;19.60;12.40;;;;;;;2.89;86.49;97026.17;210489;1286;140383;-63
2023/01/17 02:44:21;;;;;;;16.40;9.90;;;;;;;2.95;86.63;97018.54;210476;1295;141375;-65
2023/01/17 02:49:27;;;;;;;22.50;14.50;;;;;;;2.96;86.37;97006.55;210550;1284;142129;-63
2023/01/17 02:54:50;;;;;;;20.10;11.90;;;;;;;2.89;86.16;97008.81;210127;1295;140550;-63
2023/01/17 03:00:26;;;;;;;20.70;14.80;;;;;;;2.84;86.06;97003.87;209565;1300;140807;-65
2023/01/17 03:05:45;;;;;;;18.00;12.30;;;;;;;2.86;86.19;97004.41;209942;1291;141293;-62
2023/01/17 03:10:49;;;;;;;26.00;15.80;;;;;;;2.82;85.99;97000.69;208453;1289;139400;-62
2023/01/17 03:15:52;;;;;;;19.20;12.90;;;;;;;2.77;86.07;97006.65;209475;1298;140629;-62
2023/01/17 03:20:56;;;;;;;19.40;11.70;;;;;;;2.81;86.21;97008.10;209609;1291;140391;-64
2023/01/17 03:25:59;;;;;;;18.10;12.70;;;;;;;2.85;86.39;97017.56;209315;1292;140973;-63
2023/01/17 03:31:01;;;;;;;18.40;12.10;;;;;;;2.90;86.49;97020.55;208482;1278;143350;-63
2023/01/17 03:36:04;;;;;;;16.40;11.30;;;;;;;2.92;86.60;97018.94;208633;1292;151546;-62
2023/01/17 03:41:07;;;;;;;25.40;15.00;;;;;;;2.93;86.54;97015.05;208133;1282;142132;-63
2023/01/17 03:46:22;;;;;;;19.90;12.60;;;;;;;2.92;86.43;97015.73;208000;1300;141391;-63
2023/01/17 03:51:26;;;;;;;16.10;11.10;;;;;;;2.88;86.49;97012.06;209087;1287;140830;-62
2023/01/17 03:56:31;;;;;;;22.60;11.90;;;;;;;2.87;86.66;97003.73;208656;1295;141158;-63
2023/01/17 04:01:34;;;;;;;18.80;11.50;;;;;;;2.91;86.77;96996.09;207985;1292;142354;-63
2023/01/17 04:06:39;;;;;;;14.20;10.00;;;;;;;2.97;86.53;96993.67;209317;1295;140963;-65
2023/01/17 04:11:42;;;;;;;12.30;8.80;;;;;;;2.96;86.20;96990.66;208114;1295;141079;-63
2023/01/17 04:16:49;;;;;;;18.00;12.00;;;;;;;2.92;86.13;96988.10;209588;1292;140025;-63
2023/01/17 04:21:53;;;;;;;11.60;8.00;;;;;;;2.91;86.29;96977.36;208638;1293;141970;-64
2023/01/17 04:26:57;;;;;;;15.00;10.70;;;;;;;2.88;85.83;96981.34;208788;1292;142142;-63
2023/01/17 04:32:00;;;;;;;12.50;10.50;;;;;;;2.78;85.59;96975.79;208954;1285;143483;-64
2023/01/17 04:37:03;;;;;;;17.90;12.00;;;;;;;2.68;85.65;96973.88;208479;1292;140085;-64
2023/01/17 04:42:06;;;;;;;20.60;12.40;;;;;;;2.64;85.54;96975.38;210007;1295;140245;-64
2023/01/17 04:47:09;;;;;;;10.60;8.10;;;;;;;2.59;85.48;96981.06;210524;1295;142273;-64
2023/01/17 04:52:13;;;;;;;14.30;9.80;;;;;;;2.56;85.39;96978.02;210503;1295;139574;-64
2023/01/17 04:57:17;;;;;;;11.00;8.70;;;;;;;2.47;85.08;96973.33;210258;1295;140306;-64
2023/01/17 05:02:21;;;;;;;10.60;8.00;;;;;;;2.35;85.14;96967.34;209829;1288;140908;-65
2023/01/17 05:07:24;;;;;;;11.80;8.80;;;;;;;2.30;85.22;96982.86;209339;1292;140884;-64
2023/01/17 05:12:27;;;;;;;12.60;9.10;;;;;;;2.28;85.30;97001.65;208807;1286;141288;-65
2023/01/17 05:17:31;;;;;;;13.80;10.00;;;;;;;2.27;85.03;97003.28;209070;1295;142157;-63
2023/01/17 05:22:35;;;;;;;13.20;9.10;;;;;;;2.21;85.17;97003.05;208777;1285;141561;-64
2023/01/17 05:27:38;;;;;;;11.60;8.40;;;;;;;2.16;85.08;97002.27;209185;1294;140601;-65
2023/01/17 05:32:41;;;;;;;11.20;8.20;;;;;;;2.10;85.31;97006.80;208610;1292;139830;-63
2023/01/17 05:37:47;;;;;;;12.50;6.60;;;;;;;2.02;85.18;97009.90;208376;1286;140690;-63
2023/01/17 05:42:53;;;;;;;8.50;7.10;;;;;;;1.97;85.15;97010.58;208450;1292;139646;-62
2023/01/17 05:47:58;;;;;;;10.30;7.70;;;;;;;1.89;85.02;97023.83;208891;1285;139481;-63
2023/01/17 05:53:07;;;;;;;8.30;7.10;;;;;;;1.81;84.81;97017.24;208877;1286;141285;-64
2023/01/17 05:58:16;;;;;;;8.70;6.50;;;;;;;1.77;85.09;97019.51;209134;1285;140758;-65
2023/01/17 06:03:20;;;;;;;8.40;6.30;;;;;;;1.77;85.03;97020.98;208474;1294;140648;-63
2023/01/17 06:08:22;;;;;;;9.90;6.50;;;;;;;1.79;85.16;97023.10;209095;1295;139043;-64
2023/01/17 06:13:27;;;;;;;6.20;5.50;;;;;;;1.79;85.32;97030.29;208866;1284;141660;-64
2023/01/17 06:18:30;;;;;;;10.50;7.50;;;;;;;1.77;85.25;97033.64;207831;1294;140123;-62
2023/01/17 06:23:33;;;;;;;10.50;6.00;;;;;;;1.78;85.33;97040.26;208876;1286;139978;-64
2023/01/17 06:28:35;;;;;;;5.00;4.50;;;;;;;1.76;85.08;97049.52;208987;1298;140897;-63
2023/01/17 06:33:38;;;;;;;5.00;4.30;;;;;;;1.71;84.93;97064.69;209317;1278;139708;-63
2023/01/17 06:38:42;;;;;;;10.10;5.00;;;;;;;1.63;85.10;97063.95;208634;1286;139632;-63
2023/01/17 06:43:46;;;;;;;7.70;5.10;;;;;;;1.60;85.13;97067.42;209083;1286;140093;-64
2023/01/17 06:48:51;;;;;;;7.90;5.70;;;;;;;1.56;84.76;97065.44;210171;1287;143440;-63
2023/01/17 06:53:54;;;;;;;10.60;6.60;;;;;;;1.52;84.98;97061.77;210397;1291;140703;-63
2023/01/17 06:58:57;;;;;;;8.90;6.00;;;;;;;1.51;84.90;97068.11;210656;1296;140250;-64
2023/01/17 07:04:02;;;;;;;9.20;7.50;;;;;;;1.54;84.93;97069.50;208605;1291;140487;-64
2023/01/17 07:09:06;;;;;;;8.20;6.00;;;;;;;1.56;85.09;97073.21;208851;1291;140095;-65
2023/01/17 07:14:12;;;;;;;7.90;5.80;;;;;;;1.56;84.76;97083.55;208491;1292;140541;-65
2023/01/17 07:19:15;;;;;;;8.00;6.50;;;;;;;1.62;85.03;97085.38;209756;1286;150689;-65
2023/01/17 07:24:18;;;;;;;10.20;6.70;;;;;;;1.66;84.89;97085.37;208397;1284;139124;-66
2023/01/17 07:29:22;;;;;;;10.30;6.60;;;;;;;1.70;84.93;97088.73;208046;1291;140630;-63
2023/01/17 07:34:26;;;;;;;7.00;6.20;;;;;;;1.77;84.72;97093.61;209111;1284;140672;-63
2023/01/17 07:39:31;;;;;;;10.00;5.90;;;;;;;1.82;84.56;97096.95;208252;1285;140226;-63
2023/01/17 07:44:35;;;;;;;7.60;6.10;;;;;;;1.88;84.69;97094.42;208188;1285;141006;-62
2023/01/17 07:49:39;;;;;;;7.20;5.30;;;;;;;1.95;84.65;97100.14;208734;1284;141341;-62
2023/01/17 07:54:42;;;;;;;10.20;5.60;;;;;;;2.04;84.52;97110.52;207738;1284;140093;-66
2023/01/17 07:59:45;;;;;;;7.70;5.70;;;;;;;2.13;84.72;97111.52;209020;1292;141808;-63
2023/01/17 08:04:48;;;;;;;7.30;5.60;;;;;;;2.21;84.55;97108.33;207557;1285;140321;-66
2023/01/17 08:09:50;;;;;;;7.50;6.20;;;;;;;2.29;84.49;97109.96;208465;1292;140128;-63
2023/01/17 08:14:52;;;;;;;8.40;5.40;;;;;;;2.35;84.51;97109.88;208682;1285;140490;-63
2023/01/17 08:19:55;;;;;;;6.20;5.60;;;;;;;2.43;84.15;97115.96;207770;1285;140584;-63
2023/01/17 08:24:59;;;;;;;10.70;6.20;;;;;;;2.54;83.99;97120.80;208483;1293;140742;-64
2023/01/17 08:30:03;;;;;;;8.90;7.00;;;;;;;2.66;84.07;97128.52;209698;1294;140512;-63
2023/01/17 08:35:07;;;;;;;11.00;6.50;;;;;;;2.76;83.86;97136.07;209493;1291;368102;-65
2023/01/17 08:40:11;;;;;;;6.90;5.60;;;;;;;2.85;83.48;97147.42;210344;1290;142560;-66
2023/01/17 08:45:14;;;;;;;7.00;5.90;;;;;;;2.94;83.26;97148.58;210615;1294;140487;-67
2023/01/17 08:50:19;;;;;;;8.80;5.90;;;;;;;3.00;83.07;97144.06;210776;1294;140723;-66
2023/01/17 08:55:22;;;;;;;9.00;6.90;;;;;;;3.06;83.01;97141.89;210528;1285;139973;-67
2023/01/17 09:00:25;;;;;;;9.00;6.40;;;;;;;3.16;82.87;97143.70;210597;1288;140645;-66
2023/01/17 09:05:27;;;;;;;6.50;5.00;;;;;;;3.24;82.81;97150.05;210046;1295;140634;-67
2023/01/17 09:10:29;;;;;;;8.30;6.50;;;;;;;3.28;82.40;97152.30;209344;1288;139721;-67
2023/01/17 09:15:31;;;;;;;13.20;7.10;;;;;;;3.26;82.23;97158.60;208867;1286;140054;-67
2023/01/17 09:20:33;;;;;;;5.70;4.00;;;;;;;3.31;82.22;97162.65;209396;1287;142330;-67
2023/01/17 09:25:36;;;;;;;9.50;6.40;;;;;;;3.35;82.31;97165.89;207641;1288;141343;-65
2023/01/17 09:30:38;;;;;;;8.70;6.40;;;;;;;3.40;82.27;97168.55;208335;1278;142079;-65
2023/01/17 09:35:41;;;;;;;9.50;6.70;;;;;;;3.44;82.12;97177.16;208582;1292;221699;-66
2023/01/17 09:40:47;;;;;;;9.80;6.10;;;;;;;3.47;81.95;97181.52;209411;1292;142129;-65
2023/01/17 09:45:50;;;;;;;5.90;4.90;;;;;;;3.55;81.82;97181.52;208651;1291;140382;-63
2023/01/17 09:51:02;;;;;;;5.50;5.00;;;;;;;3.71;82.24;97174.16;209311;1292;139420;-65
2023/01/17 09:56:12;;;;;;;7.10;5.40;;;;;;;3.90;81.88;97169.03;208166;1284;141293;-65
2023/01/17 10:01:18;;;;;;;7.30;5.00;;;;;;;4.01;81.59;97170.81;208641;1285;142026;-64
2023/01/17 10:06:40;;;;;;;7.50;4.80;;;;;;;4.13;81.40;97183.97;209191;1285;141193;-64
2023/01/17 10:11:51;;;;;;;12.50;6.20;;;;;;;4.22;81.20;97182.77;209249;1294;139985;-65
2023/01/17 10:17:27;;;;;;;5.60;4.60;;;;;;;4.29;81.20;97181.95;209940;1292;140592;-65
2023/01/17 10:22:59;;;;;;;10.80;6.50;;;;;;;4.34;80.64;97176.27;208450;1279;202305;-67
2023/01/17 10:28:11;;;;;;;9.90;6.50;;;;;;;4.48;80.65;97183.88;208369;1288;140136;-66
2023/01/17 10:33:30;;;;;;;6.80;5.70;;;;;;;4.62;80.87;97187.83;207768;1288;140561;-66
2023/01/17 10:38:37;;;;;;;7.40;5.60;;;;;;;4.76;80.30;97184.30;209609;1292;141248;-68
2023/01/17 10:44:12;;;;;;;9.00;6.40;;;;;;;4.86;79.96;97195.58;210349;1294;140596;-66
2023/01/17 10:49:20;;;;;;;9.70;5.80;;;;;;;4.94;79.88;97198.74;210621;1294;140967;-66
2023/01/17 10:54:41;;;;;;;7.70;6.50;;;;;;;4.95;79.49;97197.43;210638;1294;141950;-66
2023/01/17 10:59:44;;;;;;;5.80;5.10;;;;;;;5.05;79.33;97196.98;210126;1284;141298;-66
2023/01/17 11:04:53;;;;;;;7.20;5.80;;;;;;;5.25;79.55;97200.25;210645;1295;141115;-63
2023/01/17 11:09:57;;;;;;;8.60;5.50;;;;;;;5.55;79.29;97193.03;209676;1285;164933;-62
2023/01/17 11:15:07;;;;;;;7.20;4.60;;;;;;;5.89;78.87;97191.44;210100;1285;142591;-62
2023/01/17 11:20:15;;;;;;;8.70;5.10;;;;;;;6.21;78.70;97185.21;208156;1291;141120;-63
2023/01/17 11:25:26;;;;;;;6.20;5.40;;;;;;;6.45;78.33;97187.35;209302;1290;139364;-63
2023/01/17 11:30:29;;;;;;;5.50;4.90;;;;;;;6.59;77.72;97185.67;209219;1292;139696;-63
2023/01/17 11:35:43;;;;;;;7.30;4.90;;;;;;;6.60;77.17;97180.02;208277;1283;152957;-67
2023/01/17 11:40:47;;;;;;;7.30;5.20;;;;;;;6.61;76.96;97177.83;209101;1285;140978;-65
2023/01/17 11:46:17;;;;;;;7.00;5.30;;;;;;;6.69;76.84;97177.75;208102;1285;141397;-64
2023/01/17 11:51:34;;;;;;;6.10;4.30;;;;;;;6.81;76.76;97178.73;207969;1286;140520;-64
2023/01/17 11:56:44;;;;;;;7.10;4.40;;;;;;;6.89;76.00;97179.77;209392;1284;140797;-63
2023/01/17 12:02:09;;;;;;;5.50;4.10;;;;;;;6.90;75.94;97176.58;207924;1292;139321;-66
2023/01/17 12:07:27;;;;;;;5.50;4.30;;;;;;;6.95;75.31;97171.52;209456;1291;142184;-64
2023/01/17 12:18:25;;;;;;;6.40;3.70;;;;;;;6.97;74.70;97182.85;209595;1293;235388;-63
2023/01/17 12:23:59;;;;;;;5.20;4.10;;;;;;;6.99;74.47;97190.05;208964;1286;140695;-64
2023/01/17 12:29:19;;;;;;;4.20;3.40;;;;;;;7.01;74.15;97193.11;209959;1286;244962;-66
2023/01/17 12:34:39;;;;;;;5.40;3.90;;;;;;;7.02;73.82;97195.23;210577;1286;140288;-65
2023/01/17 12:39:51;;;;;;;7.70;4.00;;;;;;;7.04;73.51;97199.20;210117;1290;139781;-64
2023/01/17 12:45:08;;;;;;;4.60;3.70;;;;;;;7.13;73.49;97200.96;209758;1294;141497;-64
2023/01/17 12:50:25;;;;;;;6.00;4.00;;;;;;;7.21;73.26;97200.18;210671;1295;151606;-65
2023/01/17 12:55:31;;;;;;;5.40;3.90;;;;;;;7.24;72.91;97205.15;210570;1287;139106;-65
2023/01/17 13:00:37;;;;;;;6.20;4.80;;;;;;;7.21;72.59;97202.89;209651;1295;141575;-67
2023/01/17 13:05:44;;;;;;;7.30;4.20;;;;;;;7.18;72.41;97204.13;209533;1293;141103;-65
2023/01/17 13:10:56;;;;;;;;;;;;;;;7.19;72.42;97210.90;208121;1294;139209;-66
2023/01/17 13:16:26;;;;;;;5.90;3.10;;;;;;;7.10;71.99;97211.05;209491;1286;128297;-65
2023/01/17 13:21:36;;;;;;;5.90;4.30;;;;;;;7.12;72.07;97212.89;207471;1284;142675;-65
2023/01/17 13:26:54;;;;;;;5.00;3.80;;;;;;;7.14;71.95;97210.40;209719;1284;139974;-66
2023/01/17 13:32:24;;;;;;;3.90;3.10;;;;;;;7.14;72.08;97210.66;208149;1275;140275;-66
2023/01/17 13:37:51;;;;;;;5.80;3.60;;;;;;;7.13;71.74;97205.84;209251;1286;140154;-65
2023/01/17 13:42:58;;;;;;;5.90;3.00;;;;;;;7.08;71.46;97217.31;207814;1287;139334;-65
2023/01/17 13:48:22;;;;;;;6.00;3.10;;;;;;;6.98;71.12;97228.71;210291;1293;139345;-67
2023/01/17 13:53:34;;;;;;;4.80;3.50;;;;;;;6.94;71.39;97241.29;208707;1278;140862;-65
2023/01/17 13:58:53;;;;;;;4.60;3.20;;;;;;;6.80;70.93;97249.33;207924;1286;140039;-67
2023/01/17 14:03:57;;;;;;;4.10;2.70;;;;;;;6.58;70.63;97258.67;208783;1291;139605;-66
2023/01/17 14:09:25;;;;;;;5.90;3.40;;;;;;;6.37;70.86;97274.34;207883;1284;140016;-68
2023/01/17 14:14:44;;;;;;;4.50;3.80;;;;;;;6.24;71.03;97281.86;209738;1286;139949;-64
2023/01/17 14:19:54;;;;;;;5.70;3.30;;;;;;;6.10;71.03;97282.14;208486;1278;139942;-64
2023/01/17 14:25:16;;;;;;;3.10;2.80;;;;;;;5.95;71.33;97286.37;209522;1285;140159;-68
2023/01/17 14:30:24;;;;;;;5.30;3.00;;;;;;;5.85;71.24;97286.91;209652;1278;139963;-68
2023/01/17 14:35:47;;;;;;;3.90;2.90;;;;;;;5.84;71.32;97290.35;210026;1286;140993;-68
2023/01/17 14:41:07;;;;;;;3.40;2.60;;;;;;;5.84;71.57;97297.96;210576;1294;140267;-69
2023/01/17 14:46:27;;;;;;;2.70;2.50;;;;;;;5.76;71.25;97309.23;209770;1292;139996;-67
2023/01/17 14:51:34;;;;;;;5.30;2.90;;;;;;;5.62;71.13;97313.86;210181;1279;139803;-68
2023/01/17 14:56:37;;;;;;;2.90;2.40;;;;;;;5.54;71.18;97328.48;210643;1295;140159;-69
2023/01/17 15:01:41;;;;;;;3.30;2.40;;;;;;;5.43;71.38;97342.05;210489;1285;140340;-70
2023/01/17 15:06:44;;;;;;;13.80;8.40;;;;;;;5.35;71.27;97358.08;208330;1284;140555;-67
2023/01/17 15:11:51;;;;;;;5.40;3.50;;;;;;;5.22;71.07;97370.80;209668;1284;247438;-65
2023/01/17 15:16:54;;;;;;;7.10;3.50;;;;;;;5.02;71.09;97380.48;208931;1278;140527;-64
2023/01/17 15:21:57;;;;;;;8.50;6.70;;;;;;;4.82;70.99;97400.59;208333;1288;141435;-67
2023/01/17 15:27:00;;;;;;;6.60;3.00;;;;;;;4.66;71.11;97406.22;208575;1294;140406;-66
2023/01/17 15:32:18;;;;;;;3.90;3.30;;;;;;;4.53;71.41;97414.64;208482;1284;141672;-65
2023/01/17 15:37:31;;;;;;;6.80;3.70;;;;;;;4.39;71.47;97426.42;208504;1284;140222;-67
2023/01/17 15:42:37;;;;;;;4.90;4.40;;;;;;;4.33;71.95;97428.86;207954;1292;140832;-67
2023/01/17 15:47:42;;;;;;;5.10;3.70;;;;;;;4.28;71.73;97431.30;208268;1298;140972;-67
2023/01/17 15:52:52;;;;;;;6.70;3.60;;;;;;;4.23;71.79;97421.77;208720;1287;140472;-66
2023/01/17 15:57:56;;;;;;;5.80;3.90;;;;;;;4.10;71.60;97428.50;208116;1294;139122;-65
2023/01/17 16:03:00;;;;;;;5.30;3.70;;;;;;;3.99;71.68;97437.35;207819;1286;139567;-62
2023/01/17 16:08:03;;;;;;;8.70;3.00;;;;;;;3.87;71.58;97444.34;207796;1291;139617;-66
2023/01/17 16:13:08;;;;;;;7.30;4.00;;;;;;;3.77;71.57;97444.45;208376;1292;141460;-64
2023/01/17 16:18:18;;;;;;;6.80;4.50;;;;;;;3.72;71.68;97442.43;209236;1298;221367;-63
2023/01/17 16:23:21;;;;;;;4.90;3.70;;;;;;;3.70;71.75;97445.73;208929;1290;139285;-64
2023/01/17 16:28:24;;;;;;;5.40;3.40;;;;;;;3.64;71.60;97440.67;209615;1294;139412;-67
2023/01/17 16:33:27;;;;;;;6.00;4.40;;;;;;;3.59;71.49;97441.89;210212;1292;139826;-66
2023/01/17 16:38:31;;;;;;;6.80;4.70;;;;;;;3.54;71.64;97441.02;210499;1295;140033;-66
2023/01/17 16:43:33;;;;;;;8.80;4.30;;;;;;;3.45;71.64;97441.02;210506;1293;140586;-67
2023/01/17 16:48:36;;;;;;;6.40;4.10;;;;;;;3.36;71.53;97437.80;210690;1294;139677;-64
2023/01/17 16:53:40;;;;;;;9.00;6.00;;;;;;;3.21;71.41;97434.71;209699;1285;140804;-65
2023/01/17 16:58:43;;;;;;;18.40;9.60;;;;;;;2.93;71.20;97433.43;210459;1294;141394;-66
2023/01/17 17:03:47;;;;;;;11.90;7.20;;;;;;;2.73;71.46;97430.82;208492;1285;140997;-66
2023/01/17 17:08:51;;;;;;;13.40;8.40;;;;;;;2.57;71.87;97424.63;207884;1279;248567;-64
2023/01/17 17:13:55;;;;;;;23.00;15.50;;;;;;;2.35;71.53;97432.44;209824;1291;142347;-65
2023/01/17 17:19:05;;;;;;;11.50;8.50;;;;;;;1.98;71.57;97435.91;207629;1285;140928;-65
2023/01/17 17:24:12;;;;;;;21.80;12.20;;;;;;;1.73;72.46;97446.01;208754;1291;150945;-65
2023/01/17 17:29:15;;;;;;;22.00;12.30;;;;;;;1.57;72.61;97451.57;208453;1286;140232;-65
2023/01/17 17:34:18;;;;;;;15.00;10.30;;;;;;;1.41;73.12;97444.95;208960;1295;142605;-67
2023/01/17 17:39:20;;;;;;;32.50;14.20;;;;;;;1.28;73.25;97443.48;207977;1294;141108;-65
2023/01/17 17:44:23;;;;;;;38.70;20.30;;;;;;;1.23;73.01;97440.90;207563;1292;141151;-67
2023/01/17 17:49:26;;;;;;;20.40;11.10;;;;;;;1.16;73.63;97449.10;209045;1291;143172;-65
2023/01/17 17:54:31;;;;;;;20.40;11.60;;;;;;;1.08;73.61;97445.95;208585;1291;140433;-66
2023/01/17 17:59:34;;;;;;;17.70;11.30;;;;;;;1.04;73.99;97442.08;209146;1282;140861;-66
2023/01/17 18:04:36;;;;;;;15.60;8.90;;;;;;;0.94;74.14;97452.88;208325;1285;141608;-66
2023/01/17 18:09:39;;;;;;;16.10;11.00;;;;;;;0.71;73.62;97453.67;208229;1284;140917;-64
2023/01/17 18:14:41;;;;;;;18.30;11.20;;;;;;;0.58;74.25;97453.70;209469;1291;141250;-66
2023/01/17 18:19:45;;;;;;;23.30;12.30;;;;;;;0.52;74.40;97453.80;207446;1278;152398;-67
2023/01/17 18:24:49;;;;;;;20.30;14.30;;;;;;;0.39;74.63;97456.17;208833;1288;142135;-64
2023/01/17 18:29:52;;;;;;;25.70;15.40;;;;;;;0.24;74.74;97463.50;210531;1279;140437;-64
2023/01/17 18:34:56;;;;;;;20.20;11.70;;;;;;;0.09;74.95;97474.91;209622;1287;140661;-65
2023/01/17 18:40:01;;;;;;;22.40;14.00;;;;;;;-0.01;75.00;97476.95;210215;1296;141182;-66
2023/01/17 18:45:07;;;;;;;21.20;15.10;;;;;;;-0.11;75.16;97487.55;210307;1298;141559;-66
2023/01/17 18:50:10;;;;;;;22.30;13.70;;;;;;;-0.15;75.69;97499.33;208581;1298;143387;-65
2023/01/17 18:55:12;;;;;;;21.50;14.00;;;;;;;-0.18;75.43;97514.35;209591;1285;140677;-65
2023/01/17 19:00:16;;;;;;;16.30;12.00;;;;;;;-0.29;75.90;97528.34;208390;1284;139796;-65
2023/01/17 19:05:20;;;;;;;18.30;13.60;;;;;;;-0.36;76.08;97540.54;209292;1291;140456;-64
2023/01/17 19:10:24;;;;;;;28.20;12.90;;;;;;;-0.33;76.62;97543.48;209903;1292;140354;-66
2023/01/17 19:15:32;;;;;;;29.60;12.50;;;;;;;-0.21;77.05;97546.31;209656;1293;142439;-68
2023/01/17 19:20:35;;;;;;;24.40;14.60;;;;;;;-0.05;77.23;97545.70;207873;1286;141356;-66
2023/01/17 19:25:38;;;;;;;30.10;19.90;;;;;;;-0.03;77.13;97546.84;208204;1291;140862;-64
2023/01/17 19:30:41;;;;;;;44.70;23.80;;;;;;;-0.14;76.61;97557.84;208043;1290;141350;-64
2023/01/17 19:35:44;;;;;;;41.70;23.50;;;;;;;-0.22;77.06;97565.66;207628;1293;141854;-62
2023/01/17 19:40:48;;;;;;;40.60;22.60;;;;;;;-0.32;77.04;97566.96;209030;1292;139946;-63
2023/01/17 19:45:57;;;;;;;27.70;17.70;;;;;;;-0.41;76.98;97575.46;207878;1301;142941;-62
2023/01/17 19:51:10;;;;;;;25.80;17.10;;;;;;;-0.50;76.98;97581.14;208743;1298;140868;-63
2023/01/17 19:56:20;;;;;;;25.70;15.40;;;;;;;-0.60;77.08;97594.81;208149;1298;246246;-63
2023/01/17 20:01:32;;;;;;;30.40;16.80;;;;;;;-0.74;77.57;97590.36;209645;1300;141328;-64
2023/01/17 20:06:39;;;;;;;31.10;18.10;;;;;;;-0.75;77.71;97594.35;207692;1293;140367;-63
2023/01/17 20:11:48;;;;;;;33.60;18.00;;;;;;;-0.74;78.01;97587.54;208447;1285;141423;-63
2023/01/17 20:16:55;;;;;;;31.90;19.30;;;;;;;-0.62;78.52;97581.48;210013;1291;140189;-63
2023/01/17 20:22:01;;;;;;;55.60;26.60;;;;;;;-0.50;78.68;97572.34;209110;1298;139646;-63
2023/01/17 20:27:10;;;;;;;46.10;26.40;;;;;;;-0.43;78.80;97582.05;210440;1291;139546;-63
2023/01/17 20:32:24;;;;;;;38.20;21.20;;;;;;;-0.43;78.66;97586.39;210495;1293;139753;-63
2023/01/17 20:37:35;;;;;;;61.70;31.70;;;;;;;-0.49;78.55;97583.11;209230;1291;1719153;-66
2023/01/17 20:42:39;;;;;;;74.90;31.30;;;;;;;-0.49;78.51;97583.59;210444;1295;140809;-66
2023/01/17 20:47:46;;;;;;;57.00;25.40;;;;;;;-0.59;77.92;97585.38;210533;1293;141021;-66
2023/01/17 20:52:50;;;;;;;39.30;20.10;;;;;;;-0.63;77.97;97592.64;209573;1294;141315;-67
2023/01/17 20:57:53;;;;;;;35.60;17.40;;;;;;;-0.68;77.78;97591.27;207726;1298;140107;-66
2023/01/17 21:02:57;;;;;;;31.30;14.80;;;;;;;-0.83;77.76;97586.56;208586;1292;140063;-63
2023/01/17 21:08:02;;;;;;;33.90;16.00;;;;;;;-0.85;78.69;97577.36;210007;1294;139775;-66
2023/01/17 21:13:06;;;;;;;41.30;22.10;;;;;;;-0.84;78.45;97579.73;207746;1287;142045;-67
2023/01/17 21:18:09;;;;;;;44.90;23.40;;;;;;;-0.94;78.09;97578.70;207582;1293;142604;-67
2023/01/17 21:23:16;;;;;;;42.20;23.00;;;;;;;-1.05;78.20;97576.13;207391;1298;141389;-66
2023/01/17 21:28:20;;;;;;;39.30;19.80;;;;;;;-1.13;78.82;97576.46;207791;1293;140337;-64
2023/01/17 21:33:25;;;;;;;44.40;24.70;;;;;;;-1.19;78.82;97573.05;208617;1291;140066;-64
2023/01/17 21:38:30;;;;;;;39.70;20.50;;;;;;;-1.20;79.02;97571.69;209458;1293;139539;-65
2023/01/17 21:43:33;;;;;;;39.00;21.20;;;;;;;-1.20;79.27;97566.77;207905;1301;141328;-64
2023/01/17 21:48:39;;;;;;;43.50;23.50;;;;;;;-1.15;79.45;97559.83;208569;1294;140844;-64
2023/01/17 21:53:42;;;;;;;38.10;24.10;;;;;;;-1.11;79.50;97562.98;208866;1294;162725;-64
2023/01/17 21:58:52;;;;;;;42.80;22.90;;;;;;;-1.09;79.30;97557.98;209753;1298;140023;-63
2023/01/17 22:04:01;;;;;;;57.10;31.10;;;;;;;-1.13;79.55;97548.86;209214;1301;139914;-63
2023/01/17 22:09:06;;;;;;;52.20;32.50;;;;;;;-1.13;79.38;97547.10;208841;1286;140460;-63
2023/01/17 22:14:09;;;;;;;48.00;25.60;;;;;;;-1.19;79.49;97547.10;209941;1287;140651;-64
2023/01/17 22:19:12;;;;;;;75.60;36.60;;;;;;;-1.25;79.69;97563.34;209818;1294;139909;-63
2023/01/17 22:24:16;;;;;;;91.90;39.50;;;;;;;-1.27;79.76;97578.44;210333;1295;140573;-63
2023/01/17 22:29:20;;;;;;;88.70;38.70;;;;;;;-1.27;80.09;97570.70;210730;1287;140202;-66
2023/01/17 22:34:23;;;;;;;79.30;37.80;;;;;;;-1.14;80.49;97562.59;208891;1285;141951;-63
2023/01/17 22:39:28;;;;;;;85.30;37.40;;;;;;;-1.05;80.35;97558.59;209728;1295;160374;-63
2023/01/17 22:44:31;;;;;;;83.10;40.80;;;;;;;-1.02;80.30;97545.21;210591;1289;140329;-63
2023/01/17 22:49:34;;;;;;;79.00;38.30;;;;;;;-1.00;80.32;97546.08;209071;1294;140837;-62
2023/01/17 22:54:37;;;;;;;109.90;49.70;;;;;;;-0.99;80.58;97541.17;209840;1292;140193;-64
2023/01/17 22:59:39;;;;;;;131.60;55.80;;;;;;;-0.93;80.56;97551.25;208939;1292;140621;-66
2023/01/17 23:04:42;;;;;;;140.80;55.80;;;;;;;-0.91;80.30;97564.08;209107;1292;142545;-63
2023/01/17 23:09:44;;;;;;;133.40;56.50;;;;;;;-0.92;80.53;97571.33;207930;1286;140853;-64
2023/01/17 23:20:11;;;;;;;153.40;60.80;;;;;;;-0.87;80.81;97564.27;208061;1300;140688;-65
2023/01/17 23:25:14;;;;;;;120.30;51.70;;;;;;;-0.81;81.12;97561.84;207945;1291;140188;-63
2023/01/17 23:30:49;;;;;;;96.40;46.80;;;;;;;-0.78;80.96;97564.43;208263;1291;140747;-64
2023/01/17 23:35:52;;;;;;;75.10;39.40;;;;;;;-0.81;80.83;97550.89;207857;1291;140075;-62
2023/01/17 23:46:29;;;;;;;85.00;43.10;;;;;;;-0.72;80.97;97556.70;207475;1291;140975;-63
2023/01/17 23:51:31;;;;;;;71.80;36.00;;;;;;;-0.69;81.46;97550.87;208094;1292;141159;-65
2023/01/17 23:56:34;;;;;;;68.80;37.20;;;;;;;-0.66;81.54;97540.26;208386;1289;143886;-65
